createdAt,value
2019-05-06T00:01:35.508Z,98829.34
2019-05-06T00:05:01.111Z,98830.21
2019-05-06T00:08:26.696Z,98823.17
2019-05-06T00:11:54.361Z,98824.12
2019-05-06T00:15:19.858Z,98830.03
2019-05-06T00:18:45.466Z,98828.64
2019-05-06T00:22:11.070Z,98827.33
2019-05-06T00:25:38.293Z,98824.31
2019-05-06T00:29:05.603Z,98825.16
2019-05-06T00:32:31.183Z,98825.71
2019-05-06T00:35:56.776Z,98830.89
2019-05-06T00:39:26.960Z,98835.42
2019-05-06T00:42:54.569Z,98838.05
2019-05-06T00:46:20.152Z,98843.52
2019-05-06T00:49:45.859Z,98838.70
2019-05-06T00:53:14.178Z,98837.86
2019-05-06T00:56:39.783Z,98840.14
2019-05-06T01:00:07.229Z,98837.41
2019-05-06T01:03:34.702Z,98848.88
2019-05-06T01:07:00.479Z,98848.52
2019-05-06T01:10:27.479Z,98849.17
2019-05-06T01:13:57.402Z,98849.05
2019-05-06T01:17:24.334Z,98841.83
2019-05-06T01:20:54.017Z,98840.23
2019-05-06T01:24:19.225Z,98843.33
2019-05-06T01:27:45.880Z,98835.78
2019-05-06T01:31:11.473Z,98838.80
2019-05-06T01:34:37.081Z,98835.98
2019-05-06T01:38:24.283Z,98842.84
2019-05-06T01:41:49.446Z,98840.47
2019-05-06T01:45:15.713Z,98842.41
2019-05-06T01:48:49.955Z,98846.27
2019-05-06T01:52:15.570Z,98841.38
2019-05-06T01:55:41.153Z,98846.17
2019-05-06T01:59:07.328Z,98853.03
2019-05-06T02:02:34.354Z,98848.02
2019-05-06T02:06:00.118Z,98851.11
2019-05-06T02:09:25.976Z,98849.19
2019-05-06T02:12:53.894Z,98852.84
2019-05-06T02:16:18.875Z,98848.98
2019-05-06T02:19:44.467Z,98847.03
2019-05-06T02:23:11.690Z,98852.23
2019-05-06T02:26:37.337Z,98855.70
2019-05-06T02:30:11.670Z,98855.88
2019-05-06T02:33:47.973Z,98853.20
2019-05-06T02:37:14.736Z,98857.79
2019-05-06T02:40:42.662Z,98863.82
2019-05-06T02:44:12.961Z,98857.05
2019-05-06T02:47:53.848Z,98853.52
2019-05-06T02:51:24.182Z,98857.34
2019-05-06T02:54:49.588Z,98864.20
2019-05-06T02:58:15.207Z,98864.84
2019-05-06T03:01:43.204Z,98860.52
2019-05-06T03:05:08.223Z,98865.02
2019-05-06T03:08:33.954Z,98869.20
2019-05-06T03:12:03.483Z,98868.03
2019-05-06T03:15:27.926Z,98869.58
2019-05-06T03:18:53.671Z,98860.61
2019-05-06T03:22:27.380Z,98865.42
2019-05-06T03:25:48.229Z,98862.12
2019-05-06T03:29:13.876Z,98867.17
2019-05-06T03:33:14.241Z,98868.31
2019-05-06T03:36:16.390Z,98864.27
2019-05-06T03:39:34.243Z,98867.00
2019-05-06T03:43:02.626Z,98870.73
2019-05-06T03:46:35.921Z,98869.08
2019-05-06T03:50:04.724Z,98877.06
2019-05-06T03:53:33.360Z,98877.97
2019-05-06T03:56:59.531Z,98878.52
2019-05-06T04:00:25.426Z,98878.81
2019-05-06T04:03:55.882Z,98877.20
2019-05-06T04:07:19.065Z,98880.97
2019-05-06T04:10:45.590Z,98878.43
2019-05-06T04:14:13.929Z,98877.36
2019-05-06T04:17:44.289Z,98870.33
2019-05-06T04:21:10.397Z,98878.59
2019-05-06T04:24:43.551Z,98878.51
2019-05-06T04:28:13.869Z,98885.24
2019-05-06T04:31:39.784Z,98892.27
2019-05-06T04:35:07.354Z,98893.41
2019-05-06T04:38:33.966Z,98895.28
2019-05-06T04:41:59.574Z,98898.37
2019-05-06T04:45:25.162Z,98906.53
2019-05-06T04:48:53.597Z,98917.26
2019-05-06T04:52:18.381Z,98911.55
2019-05-06T04:55:44.190Z,98910.63
2019-05-06T04:59:09.841Z,98918.25
2019-05-06T05:02:36.751Z,98922.80
2019-05-06T05:06:05.692Z,98918.59
2019-05-06T05:09:32.601Z,98916.27
2019-05-06T05:13:07.037Z,98915.12
2019-05-06T05:16:37.231Z,98918.34
2019-05-06T05:20:03.272Z,98915.36
2019-05-06T05:23:28.860Z,98919.99
2019-05-06T05:26:54.547Z,98918.63
2019-05-06T05:30:21.905Z,98919.63
2019-05-06T05:33:47.682Z,98918.95
2019-05-06T05:37:13.276Z,98916.06
2019-05-06T05:40:39.213Z,98920.56
2019-05-06T05:44:19.468Z,98925.50
2019-05-06T05:47:46.026Z,98930.84
2019-05-06T05:51:12.750Z,98933.59
2019-05-06T05:54:38.472Z,98935.45
2019-05-06T05:58:04.495Z,98939.94
2019-05-06T06:01:32.461Z,98942.66
2019-05-06T06:04:57.947Z,98945.58
2019-05-06T06:08:24.832Z,98942.72
2019-05-06T06:11:53.401Z,98942.45
2019-05-06T06:15:29.339Z,98945.91
2019-05-06T06:18:59.964Z,98944.75
2019-05-06T06:22:27.382Z,98943.06
2019-05-06T06:25:53.381Z,98948.43
2019-05-06T06:29:19.338Z,98948.28
2019-05-06T06:32:45.017Z,98944.19
2019-05-06T06:36:16.300Z,98946.47
2019-05-06T06:39:43.734Z,98940.44
2019-05-06T06:43:12.428Z,98946.11
2019-05-06T06:46:38.196Z,98949.81
2019-05-06T06:50:04.523Z,98950.27
2019-05-06T06:53:30.107Z,98946.11
2019-05-06T06:57:05.081Z,98944.58
2019-05-06T07:00:24.597Z,98941.75
2019-05-06T07:03:53.496Z,98937.21
2019-05-06T07:07:22.713Z,98938.86
2019-05-06T07:10:48.070Z,98931.89
2019-05-06T07:14:15.397Z,98927.93
2019-05-06T07:17:41.885Z,98935.47
2019-05-06T07:21:09.228Z,98917.05
2019-05-06T07:24:34.978Z,98927.03
2019-05-06T07:28:02.806Z,98925.16
2019-05-06T07:31:27.880Z,98927.57
2019-05-06T07:34:53.872Z,98939.72
2019-05-06T07:38:19.522Z,98940.77
2019-05-06T07:41:46.784Z,98939.67
2019-05-06T07:45:32.921Z,98931.22
2019-05-06T07:48:58.694Z,98933.76
2019-05-06T07:52:24.343Z,98931.92
2019-05-06T07:55:52.372Z,98933.17
2019-05-06T07:59:17.269Z,98926.32
2019-05-06T08:02:42.891Z,98924.58
2019-05-06T08:06:08.455Z,98919.88
2019-05-06T08:09:34.251Z,98922.59
2019-05-06T08:13:02.479Z,98921.88
2019-05-06T08:16:29.283Z,98916.25
2019-05-06T08:19:54.862Z,98912.50
2019-05-06T08:23:22.050Z,98911.31
2019-05-06T08:26:48.893Z,98917.06
2019-05-06T08:30:14.922Z,98910.15
2019-05-06T08:33:40.612Z,98908.89
2019-05-06T08:37:07.861Z,98905.30
2019-05-06T08:40:33.445Z,98903.74
2019-05-06T08:43:59.526Z,98909.03
2019-05-06T08:47:25.107Z,98909.75
2019-05-06T08:50:55.289Z,98914.15
2019-05-06T08:54:32.357Z,98915.08
2019-05-06T08:57:57.626Z,98908.25
2019-05-06T09:01:32.578Z,98903.33
2019-05-06T09:04:58.333Z,98903.69
2019-05-06T09:08:24.851Z,98894.67
2019-05-06T09:11:50.439Z,98901.77
2019-05-06T09:15:16.079Z,98902.29
2019-05-06T09:18:42.513Z,98894.69
2019-05-06T09:22:08.369Z,98900.44
2019-05-06T09:25:33.989Z,98887.31
2019-05-06T09:29:02.252Z,98882.98
2019-05-06T09:32:36.005Z,98887.09
2019-05-06T09:35:59.994Z,98890.89
2019-05-06T09:39:25.628Z,98887.09
2019-05-06T09:42:52.089Z,98892.09
2019-05-06T09:46:17.986Z,98898.02
2019-05-06T09:49:44.918Z,98888.69
2019-05-06T09:53:13.123Z,98879.48
2019-05-06T09:56:43.469Z,98885.05
2019-05-06T10:00:09.552Z,98888.77
2019-05-06T10:03:36.917Z,98892.71
2019-05-06T10:07:02.780Z,98888.76
2019-05-06T10:10:28.589Z,98893.30
2019-05-06T10:13:54.270Z,98885.23
2019-05-06T10:17:19.913Z,98886.94
2019-05-06T10:20:48.581Z,98885.59
2019-05-06T10:24:14.218Z,98885.66
2019-05-06T10:27:42.216Z,98889.17
2019-05-06T10:31:09.870Z,98876.84
2019-05-06T10:34:37.816Z,98879.98
2019-05-06T10:38:39.706Z,98872.33
2019-05-06T10:42:13.459Z,98873.59
2019-05-06T10:45:39.449Z,98880.78
2019-05-06T10:49:05.139Z,98875.27
2019-05-06T10:52:33.305Z,98883.31
2019-05-06T10:56:02.328Z,98886.98
2019-05-06T10:59:28.135Z,98879.92
2019-05-06T11:02:55.726Z,98874.25
2019-05-06T11:06:22.132Z,98871.17
2019-05-06T11:09:47.853Z,98861.43
2019-05-06T11:13:13.444Z,98866.26
2019-05-06T11:16:39.541Z,98853.88
2019-05-06T11:20:10.238Z,98846.04
2019-05-06T11:23:34.340Z,98836.75
2019-05-06T11:27:03.400Z,98840.39
2019-05-06T11:30:33.113Z,98845.63
2019-05-06T11:34:00.599Z,98838.78
2019-05-06T11:37:43.737Z,98834.17
2019-05-06T11:40:57.700Z,98832.70
2019-05-06T11:44:24.049Z,98820.33
2019-05-06T11:47:49.905Z,98824.27
2019-05-06T11:51:17.250Z,98831.87
2019-05-06T11:54:42.928Z,98824.60
2019-05-06T11:58:12.645Z,98820.05
2019-05-06T12:01:39.279Z,98828.38
2019-05-06T12:05:06.487Z,98829.94
2019-05-06T12:08:33.326Z,98823.34
2019-05-06T12:11:58.990Z,98832.12
2019-05-06T12:15:26.123Z,98831.05
2019-05-06T12:18:52.996Z,98830.41
2019-05-06T12:22:18.765Z,98830.53
2019-05-06T12:25:46.182Z,98828.91
2019-05-06T12:29:12.668Z,98837.14
2019-05-06T12:32:40.210Z,98848.44
2019-05-06T12:36:12.837Z,98835.02
2019-05-06T12:39:40.215Z,98829.28
2019-05-06T12:43:23.682Z,98832.34
2019-05-06T12:47:06.957Z,98837.94
2019-05-06T12:50:33.188Z,98835.31
2019-05-06T12:53:59.073Z,98843.44
2019-05-06T12:57:24.669Z,98833.86
2019-05-06T13:00:50.284Z,98843.96
2019-05-06T13:04:16.122Z,98842.48
2019-05-06T13:07:47.195Z,98840.91
2019-05-06T13:11:13.295Z,98842.74
2019-05-06T13:14:39.129Z,98840.42
2019-05-06T13:18:07.025Z,98842.48
2019-05-06T13:21:32.753Z,98824.72
2019-05-06T13:24:58.593Z,98821.77
2019-05-06T13:28:25.879Z,98822.07
2019-05-06T13:31:53.052Z,98821.56
2019-05-06T13:35:19.070Z,98814.83
2019-05-06T13:38:44.656Z,98810.34
2019-05-06T13:42:13.248Z,98821.63
2019-05-06T13:45:42.420Z,98804.62
2019-05-06T13:49:08.055Z,98804.48
2019-05-06T13:52:35.298Z,98815.52
2019-05-06T13:56:04.487Z,98812.31
2019-05-06T13:59:30.465Z,98809.84
2019-05-06T14:02:57.791Z,98801.75
2019-05-06T14:06:23.462Z,98808.64
2019-05-06T14:09:49.100Z,98803.95
2019-05-06T14:13:15.921Z,98801.94
2019-05-06T14:16:42.687Z,98804.58
2019-05-06T14:20:09.270Z,98803.74
2019-05-06T14:23:34.879Z,98800.30
2019-05-06T14:27:11.318Z,98805.75
2019-05-06T14:30:39.350Z,98805.73
2019-05-06T14:34:05.015Z,98811.05
2019-05-06T14:37:32.783Z,98805.34
2019-05-06T14:41:07.255Z,98798.47
2019-05-06T14:44:32.496Z,98804.72
2019-05-06T14:47:57.138Z,98807.59
2019-05-06T14:51:22.734Z,98811.52
2019-05-06T14:54:53.505Z,98810.70
2019-05-06T14:58:19.549Z,98808.73
2019-05-06T15:01:45.790Z,98803.54
2019-05-06T15:05:13.173Z,98812.03
2019-05-06T15:08:39.594Z,98807.13
2019-05-06T15:12:07.779Z,98807.69
2019-05-06T15:15:33.997Z,98808.20
2019-05-06T15:19:03.609Z,98802.86
2019-05-06T15:22:29.146Z,98804.52
2019-05-06T15:25:54.756Z,98795.25
2019-05-06T15:29:23.480Z,98791.74
2019-05-06T15:32:48.226Z,98798.66
2019-05-06T15:36:22.309Z,98797.39
2019-05-06T15:39:48.077Z,98795.91
2019-05-06T15:43:14.169Z,98798.17
2019-05-06T15:46:39.956Z,98799.83
2019-05-06T15:50:07.481Z,98797.29
2019-05-06T15:53:34.373Z,98807.23
2019-05-06T15:57:00.003Z,98803.52
2019-05-06T16:00:27.664Z,98810.56
2019-05-06T16:03:53.833Z,98799.91
2019-05-06T16:07:19.428Z,98801.05
2019-05-06T16:10:52.420Z,98809.39
2019-05-06T16:14:14.027Z,98805.36
2019-05-06T16:17:39.671Z,98805.35
2019-05-06T16:21:05.711Z,98798.16
2019-05-06T16:24:42.830Z,98804.05
2019-05-06T16:28:07.224Z,98805.59
2019-05-06T16:31:34.480Z,98800.87
2019-05-06T16:35:00.079Z,98801.08
2019-05-06T16:38:25.697Z,98805.43
2019-05-06T16:41:52.292Z,98808.80
2019-05-06T16:45:19.679Z,98807.69
2019-05-06T16:48:45.659Z,98804.33
2019-05-06T16:52:12.977Z,98804.50
2019-05-06T16:55:56.489Z,98801.56
2019-05-06T16:59:23.868Z,98792.16
2019-05-06T17:02:57.931Z,98794.94
2019-05-06T17:06:25.110Z,98785.12
2019-05-06T17:09:52.615Z,98790.91
2019-05-06T17:13:18.024Z,98785.95
2019-05-06T17:16:44.592Z,98780.03
2019-05-06T17:20:12.199Z,98783.91
2019-05-06T17:23:39.102Z,98786.33
2019-05-06T17:27:05.638Z,98790.86
2019-05-06T17:30:38.894Z,98791.00
2019-05-06T17:34:09.620Z,98784.77
2019-05-06T17:37:53.190Z,98793.70
2019-05-06T17:41:19.567Z,98794.14
2019-05-06T17:44:45.166Z,98785.73
2019-05-06T17:48:27.520Z,98794.80
2019-05-06T17:52:11.090Z,98800.82
2019-05-06T17:55:36.716Z,98800.39
2019-05-06T17:59:03.283Z,98799.34
2019-05-06T18:02:29.346Z,98806.66
2019-05-06T18:05:54.943Z,98801.71
2019-05-06T18:09:22.308Z,98803.03
2019-05-06T18:12:47.939Z,98799.89
2019-05-06T18:16:13.628Z,98794.75
2019-05-06T18:19:39.229Z,98797.88
2019-05-06T18:23:06.270Z,98796.02
2019-05-06T18:26:33.379Z,98796.72
2019-05-06T18:30:13.426Z,98793.41
2019-05-06T18:33:32.579Z,98796.06
2019-05-06T18:36:58.750Z,98790.98
2019-05-06T18:40:24.345Z,98791.08
2019-05-06T18:43:50.199Z,98791.44
2019-05-06T18:47:15.785Z,98795.30
2019-05-06T18:50:42.442Z,98790.54
2019-05-06T18:54:08.575Z,98791.16
2019-05-06T18:57:34.347Z,98793.61
2019-05-06T19:00:59.944Z,98791.96
2019-05-06T19:04:42.475Z,98794.42
2019-05-06T19:08:12.919Z,98795.94
2019-05-06T19:11:38.561Z,98796.75
2019-05-06T19:15:05.574Z,98802.77
2019-05-06T19:18:31.202Z,98799.92
2019-05-06T19:21:56.857Z,98799.50
2019-05-06T19:25:22.795Z,98800.50
2019-05-06T19:28:48.482Z,98803.92
2019-05-06T19:32:15.403Z,98800.02
2019-05-06T19:35:42.821Z,98800.48
2019-05-06T19:39:09.436Z,98812.22
2019-05-06T19:42:46.379Z,98806.40
2019-05-06T19:46:02.695Z,98805.92
2019-05-06T19:49:28.426Z,98814.28
2019-05-06T19:52:54.046Z,98820.80
2019-05-06T19:56:19.632Z,98821.77
2019-05-06T19:59:45.228Z,98826.48
2019-05-06T20:03:12.263Z,98827.20
2019-05-06T20:06:42.090Z,98818.30
2019-05-06T20:10:25.946Z,98821.69
2019-05-06T20:13:52.597Z,98825.77
2019-05-06T20:17:18.267Z,98825.77
2019-05-06T20:20:44.686Z,98822.03
2019-05-06T20:24:10.278Z,98824.11
2019-05-06T20:27:35.917Z,98824.59
2019-05-06T20:31:02.467Z,98820.36
2019-05-06T20:34:28.232Z,98825.78
2019-05-06T20:37:54.086Z,98830.14
2019-05-06T20:41:22.043Z,98834.00
2019-05-06T20:44:47.085Z,98832.17
2019-05-06T20:48:13.040Z,98826.38
2019-05-06T20:51:38.767Z,98823.50
2019-05-06T20:55:12.411Z,98818.55
2019-05-06T20:58:32.695Z,98816.03
2019-05-06T21:01:58.821Z,98816.86
2019-05-06T21:05:24.411Z,98818.78
2019-05-06T21:08:50.011Z,98814.91
2019-05-06T21:12:15.672Z,98815.41
2019-05-06T21:15:43.280Z,98813.60
2019-05-06T21:19:08.622Z,98808.52
2019-05-06T21:22:34.473Z,98803.96
2019-05-06T21:26:00.116Z,98811.42
2019-05-06T21:29:25.714Z,98802.99
2019-05-06T21:32:52.122Z,98812.49
2019-05-06T21:36:17.779Z,98808.00
2019-05-06T21:39:43.353Z,98806.83
2019-05-06T21:43:12.835Z,98802.25
2019-05-06T21:46:38.102Z,98807.78
2019-05-06T21:50:04.139Z,98809.48
2019-05-06T21:53:29.750Z,98808.16
2019-05-06T21:56:55.418Z,98805.37
2019-05-06T22:00:23.880Z,98800.05
2019-05-06T22:03:51.075Z,98803.91
2019-05-06T22:07:16.677Z,98803.58
2019-05-06T22:10:42.412Z,98794.88
2019-05-06T22:14:08.008Z,98798.73
2019-05-06T22:17:33.589Z,98796.41
2019-05-06T22:21:06.743Z,98796.69
2019-05-06T22:24:39.705Z,98792.07
2019-05-06T22:28:05.564Z,98787.61
2019-05-06T22:31:33.072Z,98786.83
2019-05-06T22:34:58.550Z,98780.98
2019-05-06T22:38:24.131Z,98784.13
2019-05-06T22:41:51.481Z,98779.95
2019-05-06T22:45:17.325Z,98780.59
2019-05-06T22:48:43.432Z,98780.04
2019-05-06T22:52:09.073Z,98776.58
2019-05-06T22:55:34.660Z,98773.45
2019-05-06T22:59:00.256Z,98773.77
2019-05-06T23:02:27.485Z,98773.89
2019-05-06T23:05:53.091Z,98764.42
2019-05-06T23:09:18.672Z,98765.47
2019-05-06T23:12:44.344Z,98761.97
2019-05-06T23:16:09.925Z,98764.75
2019-05-06T23:19:35.576Z,98767.19
2019-05-06T23:23:02.391Z,98762.58
2019-05-06T23:26:28.740Z,98764.86
2019-05-06T23:29:54.396Z,98761.13
2019-05-06T23:33:20.023Z,98757.40
2019-05-06T23:37:02.962Z,98759.80
2019-05-06T23:41:24.716Z,98755.83
2019-05-06T23:45:44.996Z,98753.83
2019-05-06T23:50:06.179Z,98752.95
2019-05-06T23:54:27.151Z,98748.48
2019-05-06T23:57:52.604Z,98742.02
